METAR Data

Data at: 2004 UTC 08 Feb 2023

METAR for:LIPZ (Venice/Polo Arpt, VE, IT)
Text:LIPZ 081950Z 08018KT CAVOK 01/M06 Q1038 NOSIG
Temperature: 1.0°C ( 34°F)
Dewpoint: -6.0°C ( 21°F) [RH = 59%]
Pressure (altimeter):30.65 inches Hg (1038.0 mb)
Winds:from the E (80 degrees) at 21 MPH (18 knots; 9.3 m/s)
Visibility:6 or more sm (10+ km)
Ceiling:ceiling and visibility are OK
Clouds:unknown

TAF for:LIPZ (Venice/Polo Arpt, VE, IT) issued at 1700 UTC 08 Feb 2023
Text:TAF LIPZ 081700Z 0818/0924 05014KT CAVOK
Forecast period:1800 UTC 08 February 2023 to 1600 UTC 09 February 2023
Forecast type:FROM: standard forecast or significant change
Winds:from the NE (50 degrees) at 16 MPH (14 knots; 7.2 m/s)
Visibility:6 or more sm (10+ km)
Clouds:missing
Weather:NSW (no significant weather)
Text:BECMG 0916/0918 33007KT
Forecast period:1600 UTC 09 February 2023 to 0000 UTC 10 February 2023
Forecast type:BECOMING: Conditions expected to become as follows by 1800 UTC 09 February 2023
Winds:from the NNW (330 degrees) at 8 MPH (7 knots; 3.6 m/s)
Visibility:6 or more sm (10+ km)
Clouds:missing
Weather:NSW (no significant weather)